Time;durP1;ratioP1;P1;durP2;ratioP2;P2;SDS_P1;SDS_P2;PMS_P1;PMS_P2;Temp;Humidity;BMP_temperature;BMP_pressure;BME280_temperature;BME280_humidity;BME280_pressure;Samples;Min_cycle;Max_cycle;Signal;HPM_P1;HPM_P2
2021/06/02 00:01:50;;;;;;;;;;;;;;;18.20;57.85;98962.63;5022313;28;19924;-63
2021/06/02 00:04:16;;;;;;;;;;;;;;;18.25;58.72;98963.16;5036968;28;19925;-63
2021/06/02 00:06:42;;;;;;;;;;;;;;;17.79;61.29;98960.84;5031304;28;19977;-63
2021/06/02 00:09:08;;;;;;;;;;;;;;;17.65;64.43;98955.63;5049587;28;19974;-63
2021/06/02 00:11:35;;;;;;;;;;;;;;;17.97;65.24;98941.47;5050816;28;19974;-63
2021/06/02 00:14:00;;;;;;;;;;;;;;;17.71;65.65;98950.03;5049614;28;19917;-63
2021/06/02 00:16:25;;;;;;;;;;;;;;;18.38;62.36;98935.38;5058180;28;19939;-63
2021/06/02 00:18:50;;;;;;;;;;;;;;;18.34;61.38;98939.09;5046992;28;20007;-63
2021/06/02 00:21:16;;;;;;;;;;;;;;;18.48;62.76;98935.59;5036213;28;19920;-63
2021/06/02 00:23:41;;;;;;;;;;;;;;;18.54;61.83;98931.72;5046992;28;19920;-63
2021/06/02 00:26:06;;;;;;;;;;;;;;;18.26;63.86;98932.72;5048151;28;19920;-63
2021/06/02 00:28:32;;;;;;;;;;;;;;;18.17;64.21;98932.34;5045504;28;20299;-63
2021/06/02 00:30:58;;;;;;;;;;;;;;;18.28;64.79;98923.84;5031123;28;19928;-63
2021/06/02 00:33:23;;;;;;;;;;;;;;;18.38;64.90;98930.16;5028013;28;19925;-63
2021/06/02 00:35:49;;;;;;;;;;;;;;;18.10;66.73;98931.09;5028967;28;19928;-63
2021/06/02 00:38:15;;;;;;;;;;;;;;;18.42;65.63;98929.94;5050371;28;20455;-63
2021/06/02 00:40:46;;;;;;;;;;;;;;;18.30;62.64;98927.19;5055022;28;19931;-63
2021/06/02 00:43:14;;;;;;;;;;;;;;;18.29;65.99;98922.94;5057163;28;19916;-63
2021/06/02 00:45:39;;;;;;;;;;;;;;;18.37;65.49;98928.47;5047967;28;19997;-63
2021/06/02 00:48:05;;;;;;;;;;;;;;;18.22;68.68;98924.25;5043952;28;19916;-63
2021/06/02 00:50:30;;;;;;;;;;;;;;;18.19;67.17;98924.44;5050506;28;19920;-63
2021/06/02 00:52:56;;;;;;;;;;;;;;;18.44;65.34;98928.91;5047370;28;20328;-63
2021/06/02 00:55:22;;;;;;;;;;;;;;;18.21;66.77;98927.81;5031849;28;19962;-63
2021/06/02 00:57:48;;;;;;;;;;;;;;;18.27;66.64;98923.94;5047857;28;19924;-63
2021/06/02 01:00:13;;;;;;;;;;;;;;;18.25;68.10;98918.03;5046287;28;19964;-62
2021/06/02 01:02:39;;;;;;;;;;;;;;;18.01;69.12;98916.03;5054093;28;19959;-63
2021/06/02 01:05:05;;;;;;;;;;;;;;;18.10;68.74;98919.84;5015076;28;19924;-63
2021/06/02 01:07:30;;;;;;;;;;;;;;;17.83;67.91;98925.03;5053796;28;19932;-63
2021/06/02 01:09:56;;;;;;;;;;;;;;;17.74;72.24;98914.25;5034729;28;19924;-63
2021/06/02 01:12:22;;;;;;;;;;;;;;;18.00;69.38;98916.16;5030991;28;19920;-63
2021/06/02 01:14:48;;;;;;;;;;;;;;;18.16;69.39;98924.66;5055847;28;19935;-63
2021/06/02 01:17:14;;;;;;;;;;;;;;;18.21;69.89;98919.97;5047107;28;20305;-63
2021/06/02 01:19:40;;;;;;;;;;;;;;;18.09;68.84;98919.00;5049562;28;20046;-63
2021/06/02 01:22:05;;;;;;;;;;;;;;;18.11;67.74;98917.13;5027277;28;20541;-62
2021/06/02 01:24:31;;;;;;;;;;;;;;;17.93;70.34;98918.31;5055651;28;19918;-63
2021/06/02 01:26:58;;;;;;;;;;;;;;;18.04;70.07;98915.00;5045832;28;19928;-63
2021/06/02 01:29:24;;;;;;;;;;;;;;;17.75;71.29;98913.28;5055827;28;19927;-63
2021/06/02 01:31:49;;;;;;;;;;;;;;;17.92;69.41;98919.22;5027286;28;19927;-63
2021/06/02 01:34:23;;;;;;;;;;;;;;;17.76;71.32;98917.56;5055698;28;19921;-63
2021/06/02 01:37:07;;;;;;;;;;;;;;;17.64;71.21;98925.31;5053511;28;19925;-63
2021/06/02 01:39:43;;;;;;;;;;;;;;;17.65;72.89;98929.59;5051887;28;19940;-63
2021/06/02 01:42:09;;;;;;;;;;;;;;;16.81;78.82;98938.09;5028360;28;19947;-63
2021/06/02 01:44:52;;;;;;;;;;;;;;;16.30;89.26;98936.63;5049152;28;20398;-63
2021/06/02 01:47:23;;;;;;;;;;;;;;;16.54;80.76;98925.78;5052110;28;19920;-63
2021/06/02 01:49:49;;;;;;;;;;;;;;;16.90;78.40;98930.63;5050061;28;20320;-63
2021/06/02 01:52:33;;;;;;;;;;;;;;;16.79;79.03;98929.56;5047267;28;19921;-63
2021/06/02 01:55:17;;;;;;;;;;;;;;;17.65;78.02;98933.03;5049487;28;19924;-63
2021/06/02 01:57:42;;;;;;;;;;;;;;;17.48;74.22;98935.84;5038687;28;19920;-63
2021/06/02 02:00:26;;;;;;;;;;;;;;;17.91;75.68;98925.38;5054331;28;19924;-63
2021/06/02 02:03:01;;;;;;;;;;;;;;;17.55;76.55;98930.16;5049005;28;19925;-63
2021/06/02 02:05:29;;;;;;;;;;;;;;;17.70;72.29;98923.16;5049067;28;20058;-63
2021/06/02 02:07:57;;;;;;;;;;;;;;;18.11;73.22;98931.91;5053043;28;19924;-63
2021/06/02 02:10:32;;;;;;;;;;;;;;;17.06;75.84;98925.34;5053696;28;19939;-63
2021/06/02 02:13:09;;;;;;;;;;;;;;;17.50;76.47;98926.19;5054753;28;19921;-63
2021/06/02 02:15:41;;;;;;;;;;;;;;;16.83;79.35;98925.84;5034697;28;20295;-64
2021/06/02 02:18:15;;;;;;;;;;;;;;;17.47;76.89;98927.22;5052556;28;19931;-63
2021/06/02 02:20:47;;;;;;;;;;;;;;;17.36;76.58;98919.22;5052986;28;20476;-63
2021/06/02 02:23:25;;;;;;;;;;;;;;;17.11;77.84;98915.50;5037840;28;19924;-63
2021/06/02 02:25:57;;;;;;;;;;;;;;;16.99;81.43;98918.84;5051909;28;19931;-63
2021/06/02 02:28:34;;;;;;;;;;;;;;;16.75;82.62;98917.66;5035347;28;19913;-63
2021/06/02 02:31:07;;;;;;;;;;;;;;;17.18;77.81;98925.53;5049885;28;20044;-63
2021/06/02 02:33:38;;;;;;;;;;;;;;;16.83;79.53;98915.44;5053278;28;19917;-63
2021/06/02 02:36:07;;;;;;;;;;;;;;;16.99;76.81;98920.59;5031972;28;19920;-63
2021/06/02 02:38:55;;;;;;;;;;;;;;;16.86;76.26;98920.50;5055576;28;19948;-63
2021/06/02 02:41:26;;;;;;;;;;;;;;;16.81;79.31;98922.50;5031613;28;19924;-64
2021/06/02 02:43:57;;;;;;;;;;;;;;;17.07;76.55;98921.81;5056321;28;19927;-63
2021/06/02 02:46:41;;;;;;;;;;;;;;;17.20;74.88;98928.88;5053275;28;20540;-63
2021/06/02 02:49:07;;;;;;;;;;;;;;;17.26;75.72;98923.28;5051015;28;19919;-63
2021/06/02 02:51:37;;;;;;;;;;;;;;;16.97;75.57;98923.28;5051607;28;20302;-63
2021/06/02 02:54:03;;;;;;;;;;;;;;;16.61;79.43;98927.09;5055382;28;20555;-63
2021/06/02 02:56:46;;;;;;;;;;;;;;;16.04;84.23;98926.88;5049108;28;19920;-63
2021/06/02 02:59:15;;;;;;;;;;;;;;;15.81;87.71;98916.00;5049467;28;20524;-63
2021/06/02 03:01:43;;;;;;;;;;;;;;;15.60;89.54;98911.91;5055893;28;19971;-63
2021/06/02 03:04:26;;;;;;;;;;;;;;;15.91;83.81;98905.09;5028351;28;20183;-63
2021/06/02 03:06:59;;;;;;;;;;;;;;;16.21;86.19;98892.97;5032740;28;20393;-63
2021/06/02 03:09:27;;;;;;;;;;;;;;;16.68;79.68;98886.78;5050671;28;19920;-63
2021/06/02 03:12:00;;;;;;;;;;;;;;;16.68;78.97;98889.41;5048453;28;19925;-63
2021/06/02 03:14:31;;;;;;;;;;;;;;;16.84;77.97;98886.75;5032228;28;19963;-63
2021/06/02 03:16:58;;;;;;;;;;;;;;;16.58;75.31;98890.88;5053679;28;20003;-63
2021/06/02 03:19:35;;;;;;;;;;;;;;;16.19;80.00;98896.59;5052062;28;20345;-63
2021/06/02 03:22:03;;;;;;;;;;;;;;;16.39;80.17;98895.47;5028673;28;19916;-63
2021/06/02 03:24:28;;;;;;;;;;;;;;;16.53;77.18;98892.88;5039216;28;20467;-63
2021/06/02 03:26:55;;;;;;;;;;;;;;;16.49;78.58;98889.66;5033547;28;19956;-63
2021/06/02 03:29:25;;;;;;;;;;;;;;;16.43;79.20;98896.97;5032596;28;20008;-63
2021/06/02 03:31:58;;;;;;;;;;;;;;;16.54;79.30;98894.56;5050171;28;19978;-63
2021/06/02 03:34:24;;;;;;;;;;;;;;;16.53;79.23;98898.09;5059428;28;19918;-63
2021/06/02 03:37:01;;;;;;;;;;;;;;;16.58;80.24;98893.47;5051131;28;19927;-63
2021/06/02 03:39:45;;;;;;;;;;;;;;;16.63;82.26;98894.03;5028981;28;20408;-63
2021/06/02 03:42:29;;;;;;;;;;;;;;;15.03;93.34;98904.56;5053434;28;19917;-63
2021/06/02 03:45:00;;;;;;;;;;;;;;;14.95;96.01;98914.50;5056260;28;19939;-63
2021/06/02 03:47:38;;;;;;;;;;;;;;;14.07;100.00;98912.75;5052643;28;19920;-63
2021/06/02 03:50:03;;;;;;;;;;;;;;;13.33;100.00;98919.56;5053028;28;19917;-63
2021/06/02 03:52:46;;;;;;;;;;;;;;;13.75;100.00;98910.78;5047494;28;20893;-63
2021/06/02 03:55:24;;;;;;;;;;;;;;;14.03;100.00;98922.44;5052899;28;19916;-63
2021/06/02 03:57:59;;;;;;;;;;;;;;;15.35;92.79;98918.44;5035727;28;19917;-63
2021/06/02 04:00:27;;;;;;;;;;;;;;;15.68;91.67;98912.34;5051951;28;19947;-63
2021/06/02 04:02:59;;;;;;;;;;;;;;;15.82;91.88;98909.88;5053226;28;19925;-63
2021/06/02 04:05:31;;;;;;;;;;;;;;;16.48;87.14;98913.94;5035600;28;19920;-63
2021/06/02 04:07:56;;;;;;;;;;;;;;;16.37;80.55;98916.31;5050382;28;19943;-63
2021/06/02 04:10:24;;;;;;;;;;;;;;;16.12;80.47;98911.69;5052364;28;20568;-63
2021/06/02 04:12:50;;;;;;;;;;;;;;;16.17;84.64;98906.22;5050797;28;19929;-63
2021/06/02 04:15:16;;;;;;;;;;;;;;;16.30;83.51;98909.81;5035122;28;20011;-63
2021/06/02 04:17:45;;;;;;;;;;;;;;;16.55;87.57;98919.63;5048539;28;20499;-63
2021/06/02 04:20:11;;;;;;;;;;;;;;;15.70;85.28;98918.31;5049961;28;19946;-63
2021/06/02 04:22:36;;;;;;;;;;;;;;;15.54;89.20;98927.84;5052870;28;19917;-63
2021/06/02 04:25:02;;;;;;;;;;;;;;;15.37;88.95;98926.13;5032342;28;19931;-63
2021/06/02 04:27:27;;;;;;;;;;;;;;;15.70;93.25;98928.69;5047872;28;19925;-63
2021/06/02 04:29:53;;;;;;;;;;;;;;;16.33;88.80;98924.38;5029597;28;19971;-63
2021/06/02 04:32:18;;;;;;;;;;;;;;;16.52;86.30;98923.25;5032080;28;19920;-63
2021/06/02 04:34:44;;;;;;;;;;;;;;;16.67;88.08;98925.88;5026410;28;20016;-63
2021/06/02 04:37:10;;;;;;;;;;;;;;;16.23;87.30;98931.88;5052333;28;19917;-63
2021/06/02 04:39:39;;;;;;;;;;;;;;;15.89;90.56;98937.16;5031288;28;19923;-63
2021/06/02 04:42:06;;;;;;;;;;;;;;;15.23;96.12;98932.03;5054570;28;20058;-63
2021/06/02 04:44:32;;;;;;;;;;;;;;;14.90;100.00;98937.22;5048073;28;19952;-63
2021/06/02 04:46:59;;;;;;;;;;;;;;;15.58;99.90;98926.78;5030078;28;20015;-63
2021/06/02 04:49:43;;;;;;;;;;;;;;;15.97;94.41;98921.19;5032928;28;19920;-63
2021/06/02 04:52:26;;;;;;;;;;;;;;;16.34;95.40;98929.50;5050256;28;19924;-63
2021/06/02 04:54:52;;;;;;;;;;;;;;;16.53;91.05;98926.69;5045332;28;19920;-64
2021/06/02 04:57:20;;;;;;;;;;;;;;;16.70;86.78;98926.56;5052635;28;19912;-63
2021/06/02 05:00:04;;;;;;;;;;;;;;;15.87;91.10;98938.19;5048219;28;19924;-63
2021/06/02 05:02:36;;;;;;;;;;;;;;;16.44;88.01;98935.00;5049596;28;19924;-64
2021/06/02 05:05:20;;;;;;;;;;;;;;;16.41;87.97;98930.81;5049807;28;19987;-63
2021/06/02 05:07:48;;;;;;;;;;;;;;;17.24;87.84;98936.41;5048015;28;19925;-63
2021/06/02 05:10:30;;;;;;;;;;;;;;;17.32;87.14;98943.75;5028640;28;20408;-63
2021/06/02 05:12:58;;;;;;;;;;;;;;;17.56;86.37;98937.06;5029513;28;19925;-63
2021/06/02 05:15:26;;;;;;;;;;;;;;;17.23;87.18;98941.72;5045936;28;20663;-63
2021/06/02 05:17:54;;;;;;;;;;;;;;;17.17;86.92;98942.06;5046930;28;19925;-63
2021/06/02 05:23:48;;;;;;;;;;;;;;;17.48;80.49;98949.69;5045550;28;20275;-63
2021/06/02 05:26:20;;;;;;;;;;;;;;;18.16;82.91;98951.56;4967494;28;19926;-63
2021/06/02 05:29:02;;;;;;;;;;;;;;;18.49;80.91;98950.28;4968208;28;20045;-63
2021/06/02 05:31:37;;;;;;;;;;;;;;;18.17;81.48;98948.00;5005104;28;19932;-63
2021/06/02 05:34:14;;;;;;;;;;;;;;;18.45;78.68;98950.59;5057262;28;19931;-63
2021/06/02 05:36:58;;;;;;;;;;;;;;;18.27;78.45;98948.25;5035786;28;19935;-63
2021/06/02 05:39:29;;;;;;;;;;;;;;;18.80;75.37;98950.94;5051581;28;19928;-63
2021/06/02 05:41:57;;;;;;;;;;;;;;;19.05;76.63;98950.13;5055436;28;20006;-63
2021/06/02 05:44:25;;;;;;;;;;;;;;;19.32;71.72;98946.56;5056829;28;19951;-66
2021/06/02 05:47:10;;;;;;;;;;;;;;;19.09;71.54;98948.97;5053148;28;20454;-63
2021/06/02 05:49:35;;;;;;;;;;;;;;;18.94;72.47;98950.81;5057984;28;20015;-63
2021/06/02 05:52:19;;;;;;;;;;;;;;;18.94;71.12;98952.59;5052350;28;20045;-63
2021/06/02 05:54:53;;;;;;;;;;;;;;;19.30;71.12;98951.06;5055647;28;20014;-63
2021/06/02 05:57:21;;;;;;;;;;;;;;;19.64;68.34;98945.16;5053648;28;19978;-63
2021/06/02 06:00:05;;;;;;;;;;;;;;;20.34;67.17;98929.75;5050269;28;19923;-63
2021/06/02 06:02:42;;;;;;;;;;;;;;;20.72;64.28;98940.03;5057620;28;20381;-63
2021/06/02 06:05:11;;;;;;;;;;;;;;;20.59;65.04;98939.28;5051869;28;20409;-63
2021/06/02 06:07:55;;;;;;;;;;;;;;;21.08;62.55;98935.59;5054299;28;20068;-63
2021/06/02 06:10:26;;;;;;;;;;;;;;;21.35;61.66;98942.25;5056549;28;19912;-63
2021/06/02 06:12:51;;;;;;;;;;;;;;;21.51;61.72;98940.16;5053976;28;19979;-63
2021/06/02 06:15:32;;;;;;;;;;;;;;;21.95;58.46;98929.72;5057055;28;19924;-63
2021/06/02 06:18:10;;;;;;;;;;;;;;;21.63;58.65;98935.75;5052963;28;20044;-63
2021/06/02 06:20:54;;;;;;;;;;;;;;;21.99;59.16;98933.78;5039463;28;20004;-63
2021/06/02 06:23:34;;;;;;;;;;;;;;;21.88;59.06;98935.47;5054751;28;19916;-62
2021/06/02 06:26:07;;;;;;;;;;;;;;;21.82;58.59;98935.94;5053747;28;19927;-63
2021/06/02 06:28:32;;;;;;;;;;;;;;;21.97;57.95;98936.50;5030767;28;20007;-62
2021/06/02 06:30:58;;;;;;;;;;;;;;;21.91;57.44;98939.63;5022999;28;20016;-62
2021/06/02 06:33:25;;;;;;;;;;;;;;;22.05;58.00;98938.50;5053691;28;20433;-63
2021/06/02 06:35:50;;;;;;;;;;;;;;;21.55;60.08;98946.81;5040739;28;19928;-63
2021/06/02 06:38:21;;;;;;;;;;;;;;;21.80;60.70;98937.00;5034624;28;20302;-62
2021/06/02 06:40:47;;;;;;;;;;;;;;;22.19;59.82;98929.53;5055146;28;20435;-62
2021/06/02 06:43:12;;;;;;;;;;;;;;;22.60;59.70;98935.81;5031876;28;19920;-63
2021/06/02 06:45:39;;;;;;;;;;;;;;;22.59;59.06;98934.16;5056301;28;20195;-63
2021/06/02 06:48:17;;;;;;;;;;;;;;;22.33;59.26;98930.09;5051381;28;20413;-63
2021/06/02 06:50:45;;;;;;;;;;;;;;;22.61;59.82;98927.00;5017640;28;19916;-63
2021/06/02 06:53:11;;;;;;;;;;;;;;;22.70;59.21;98931.50;5039830;28;20294;-63
2021/06/02 06:55:36;;;;;;;;;;;;;;;22.80;57.11;98924.50;5034275;28;19927;-63
2021/06/02 06:58:02;;;;;;;;;;;;;;;23.29;57.72;98938.75;5031325;28;19921;-63
2021/06/02 07:00:27;;;;;;;;;;;;;;;23.09;56.12;98926.50;5029069;28;20450;-63
2021/06/02 07:02:52;;;;;;;;;;;;;;;22.86;56.77;98926.63;5057146;28;20011;-63
2021/06/02 07:05:18;;;;;;;;;;;;;;;23.23;58.01;98934.03;5034120;28;19927;-63
2021/06/02 07:07:44;;;;;;;;;;;;;;;23.23;58.74;98928.78;5030556;28;19924;-63
2021/06/02 07:10:11;;;;;;;;;;;;;;;23.57;54.83;98925.88;5030116;28;19924;-63
2021/06/02 07:12:36;;;;;;;;;;;;;;;23.84;54.36;98927.91;5047542;28;19925;-63
2021/06/02 07:15:03;;;;;;;;;;;;;;;23.75;54.54;98931.34;5017782;28;20452;-63
2021/06/02 07:17:28;;;;;;;;;;;;;;;24.26;53.20;98926.84;5051008;28;20003;-63
2021/06/02 07:19:57;;;;;;;;;;;;;;;24.14;53.71;98934.88;5013663;28;20486;-63
2021/06/02 07:22:23;;;;;;;;;;;;;;;24.41;52.69;98930.72;5050375;28;19924;-63
2021/06/02 07:24:52;;;;;;;;;;;;;;;24.68;52.62;98929.19;5055445;28;19928;-63
2021/06/02 07:27:18;;;;;;;;;;;;;;;25.05;49.86;98919.56;5029984;28;19924;-63
2021/06/02 07:29:43;;;;;;;;;;;;;;;25.16;49.82;98920.38;5052565;28;19925;-63
2021/06/02 07:32:08;;;;;;;;;;;;;;;25.38;47.05;98929.72;5059611;28;19924;-63
2021/06/02 07:34:34;;;;;;;;;;;;;;;25.28;49.81;98921.88;5054816;28;19995;-63
2021/06/02 07:36:59;;;;;;;;;;;;;;;25.72;48.38;98927.34;5054840;28;19916;-63
2021/06/02 07:39:25;;;;;;;;;;;;;;;25.77;48.00;98935.66;5048990;28;19913;-63
2021/06/02 07:41:50;;;;;;;;;;;;;;;26.31;47.13;98927.81;5054738;28;19921;-64
2021/06/02 07:44:16;;;;;;;;;;;;;;;26.30;45.56;98928.78;5051721;28;19947;-64
2021/06/02 07:46:41;;;;;;;;;;;;;;;26.69;47.19;98931.13;5056981;28;19912;-64
2021/06/02 07:49:06;;;;;;;;;;;;;;;27.01;42.55;98932.34;5053592;28;20853;-64
2021/06/02 07:51:32;;;;;;;;;;;;;;;26.55;38.60;98929.00;5050445;28;20552;-63
2021/06/02 07:53:58;;;;;;;;;;;;;;;26.43;46.13;98936.31;5055796;28;19927;-64
2021/06/02 07:56:23;;;;;;;;;;;;;;;26.74;40.37;98944.69;5049841;28;20470;-64
2021/06/02 07:58:48;;;;;;;;;;;;;;;26.88;42.29;98945.94;5058330;28;19925;-64
2021/06/02 08:01:14;;;;;;;;;;;;;;;26.96;40.36;98947.81;5052588;28;19920;-64
2021/06/02 08:03:39;;;;;;;;;;;;;;;27.45;41.22;98946.28;5049764;28;19921;-64
2021/06/02 08:06:04;;;;;;;;;;;;;;;27.34;39.52;98946.56;5051056;28;19975;-63
2021/06/02 08:08:30;;;;;;;;;;;;;;;28.09;38.52;98945.88;5050513;28;19931;-64
2021/06/02 08:10:55;;;;;;;;;;;;;;;28.10;38.01;98951.00;5049168;28;19916;-64
2021/06/02 08:13:20;;;;;;;;;;;;;;;27.78;37.68;98958.81;5053878;28;20448;-64
2021/06/02 08:15:46;;;;;;;;;;;;;;;27.86;38.04;98950.94;5053958;28;20448;-64
2021/06/02 08:18:11;;;;;;;;;;;;;;;28.12;37.12;98954.34;5049101;28;19920;-64
2021/06/02 08:20:36;;;;;;;;;;;;;;;28.01;38.26;98951.13;5049045;28;19973;-64
2021/06/02 08:23:02;;;;;;;;;;;;;;;28.65;37.43;98949.59;5048161;28;20002;-64
2021/06/02 08:25:27;;;;;;;;;;;;;;;28.62;34.17;98943.78;5047590;28;22705;-64
2021/06/02 08:27:54;;;;;;;;;;;;;;;28.94;32.97;98950.88;5053073;28;19920;-64
2021/06/02 08:30:19;;;;;;;;;;;;;;;28.22;35.69;98951.53;5053410;28;20464;-64
2021/06/02 08:32:45;;;;;;;;;;;;;;;25.34;37.73;98954.72;5053768;28;19921;-64
2021/06/02 08:35:11;;;;;;;;;;;;;;;25.86;37.43;98949.75;5034068;28;20016;-64
2021/06/02 08:37:36;;;;;;;;;;;;;;;26.22;37.89;98949.81;5054268;28;19924;-64
2021/06/02 08:40:02;;;;;;;;;;;;;;;27.33;39.87;98945.75;5052142;28;19927;-64
2021/06/02 08:42:27;;;;;;;;;;;;;;;26.41;40.20;98954.13;5050800;28;19929;-64
2021/06/02 08:44:53;;;;;;;;;;;;;;;26.70;35.05;98952.09;5034471;28;19917;-64
2021/06/02 08:47:19;;;;;;;;;;;;;;;24.83;39.22;98957.59;5050958;28;19920;-63
2021/06/02 08:49:44;;;;;;;;;;;;;;;26.40;36.44;98953.28;5052989;28;19927;-64
2021/06/02 08:52:09;;;;;;;;;;;;;;;25.16;42.92;98957.25;5053925;28;19974;-64
2021/06/02 08:54:36;;;;;;;;;;;;;;;25.83;43.98;98950.88;5059331;28;19931;-63
2021/06/02 08:57:05;;;;;;;;;;;;;;;25.25;40.57;98953.81;5051100;28;19928;-64
2021/06/02 08:59:30;;;;;;;;;;;;;;;25.32;38.79;98952.25;5030496;28;19928;-63
2021/06/02 09:01:57;;;;;;;;;;;;;;;26.34;37.87;98948.59;5033771;28;20015;-63
2021/06/02 09:04:22;;;;;;;;;;;;;;;28.88;31.91;98946.25;5033435;28;19924;-64
2021/06/02 09:06:48;;;;;;;;;;;;;;;26.65;33.16;98956.19;5034661;28;20301;-64
2021/06/02 09:09:14;;;;;;;;;;;;;;;28.51;34.81;98939.63;5033805;28;19932;-63
2021/06/02 09:11:40;;;;;;;;;;;;;;;27.89;38.32;98951.44;5027339;28;19947;-64
2021/06/02 09:14:22;;;;;;;;;;;;;;;26.07;35.71;98949.53;5033782;28;20411;-64
2021/06/02 09:16:49;;;;;;;;;;;;;;;27.73;34.54;98956.66;5035022;28;20345;-64
2021/06/02 09:19:14;;;;;;;;;;;;;;;26.58;41.27;98950.69;5030670;28;19959;-64
2021/06/02 09:21:40;;;;;;;;;;;;;;;29.02;35.71;98934.97;5041073;28;19952;-63
2021/06/02 09:24:06;;;;;;;;;;;;;;;28.51;36.29;98940.50;5033279;28;19919;-64
2021/06/02 09:26:31;;;;;;;;;;;;;;;26.85;42.55;98951.56;5036999;28;20543;-64
2021/06/02 09:29:00;;;;;;;;;;;;;;;26.41;38.86;98943.56;5037628;28;20444;-64
2021/06/02 09:31:35;;;;;;;;;;;;;;;26.29;40.71;98946.41;5030552;28;20509;-64
2021/06/02 09:34:24;;;;;;;;;;;;;;;25.51;38.36;98951.31;5032181;28;19921;-64
2021/06/02 09:37:11;;;;;;;;;;;;;;;26.73;38.17;98950.13;5033753;28;20515;-64
2021/06/02 09:39:43;;;;;;;;;;;;;;;28.10;34.49;98947.50;5030451;28;20019;-64
2021/06/02 09:42:19;;;;;;;;;;;;;;;30.02;35.11;98940.56;5029757;28;20085;-64
2021/06/02 09:45:21;;;;;;;;;;;;;;;27.51;38.68;98945.66;5033304;28;19998;-64
2021/06/02 09:47:51;;;;;;;;;;;;;;;26.33;43.32;98940.88;4991052;28;19920;-64
2021/06/02 09:50:27;;;;;;;;;;;;;;;26.48;38.31;98945.47;5025203;28;19921;-64
2021/06/02 09:52:53;;;;;;;;;;;;;;;27.70;34.44;98943.75;5032296;28;19917;-64
2021/06/02 09:55:18;;;;;;;;;;;;;;;29.26;34.99;98934.09;5028260;28;19921;-64
2021/06/02 09:57:44;;;;;;;;;;;;;;;28.52;29.53;98941.31;5034432;28;19932;-64
2021/06/02 10:00:10;;;;;;;;;;;;;;;29.51;35.00;98937.47;5055274;28;19912;-64
2021/06/02 10:02:36;;;;;;;;;;;;;;;29.78;37.09;98938.06;5049027;28;19913;-64
2021/06/02 10:05:11;;;;;;;;;;;;;;;30.56;29.87;98941.53;5049227;28;19917;-64
2021/06/02 10:07:43;;;;;;;;;;;;;;;29.26;30.10;98939.38;5052174;28;20339;-64
2021/06/02 10:10:17;;;;;;;;;;;;;;;30.48;29.51;98938.97;5052448;28;19928;-64
2021/06/02 10:13:02;;;;;;;;;;;;;;;31.80;29.69;98945.41;5038833;28;19958;-64
2021/06/02 10:15:29;;;;;;;;;;;;;;;28.78;31.57;98941.13;5049593;28;19917;-64
2021/06/02 10:17:55;;;;;;;;;;;;;;;28.67;35.83;98928.22;5061031;28;19927;-64
2021/06/02 10:20:21;;;;;;;;;;;;;;;28.74;37.52;98935.34;5057639;28;19944;-64
2021/06/02 10:22:56;;;;;;;;;;;;;;;29.26;31.20;98941.22;5016183;28;19968;-64
2021/06/02 10:25:23;;;;;;;;;;;;;;;27.62;39.07;98941.06;5058379;28;19923;-64
2021/06/02 10:27:49;;;;;;;;;;;;;;;26.48;38.52;98944.63;5040351;28;20013;-64
2021/06/02 10:30:15;;;;;;;;;;;;;;;26.10;36.51;98941.31;5057123;28;20293;-64
2021/06/02 10:32:41;;;;;;;;;;;;;;;27.02;35.32;98948.00;5052817;28;19913;-64
2021/06/02 10:35:06;;;;;;;;;;;;;;;27.64;34.64;98944.38;5061524;28;19925;-64
2021/06/02 10:37:32;;;;;;;;;;;;;;;27.10;34.97;98952.53;5054318;28;19917;-64
2021/06/02 10:39:59;;;;;;;;;;;;;;;27.22;36.32;98942.56;5038824;28;20011;-64
2021/06/02 10:42:47;;;;;;;;;;;;;;;27.18;35.64;98947.28;5054905;28;19928;-64
2021/06/02 10:45:32;;;;;;;;;;;;;;;28.36;35.41;98942.91;5045564;28;19923;-65
2021/06/02 10:48:03;;;;;;;;;;;;;;;27.89;32.84;98946.16;5053407;28;19916;-64
2021/06/02 10:50:36;;;;;;;;;;;;;;;27.93;31.62;98944.84;5052548;28;19948;-64
2021/06/02 10:53:02;;;;;;;;;;;;;;;27.73;34.33;98956.66;5054599;28;19935;-64
2021/06/02 10:55:31;;;;;;;;;;;;;;;28.71;32.84;98943.59;5039929;28;19916;-64
2021/06/02 10:58:17;;;;;;;;;;;;;;;28.66;33.19;98945.94;5051564;28;19943;-64
2021/06/02 11:00:43;;;;;;;;;;;;;;;29.10;32.60;98945.59;5052075;28;20053;-64
2021/06/02 11:03:25;;;;;;;;;;;;;;;30.80;31.10;98938.66;5051348;28;19996;-64
2021/06/02 11:06:01;;;;;;;;;;;;;;;30.50;32.15;98942.28;5055816;28;19912;-64
2021/06/02 11:08:46;;;;;;;;;;;;;;;31.76;27.94;98944.09;5034993;28;19917;-64
2021/06/02 11:11:21;;;;;;;;;;;;;;;29.07;29.67;98945.06;5049939;28;19971;-64
2021/06/02 11:14:05;;;;;;;;;;;;;;;29.92;28.90;98950.56;5055618;28;20524;-64
2021/06/02 11:16:37;;;;;;;;;;;;;;;29.89;30.77;98942.97;5033624;28;20019;-64
2021/06/02 11:19:15;;;;;;;;;;;;;;;30.19;33.02;98935.16;5054995;28;20339;-64
2021/06/02 11:21:52;;;;;;;;;;;;;;;31.87;30.76;98940.16;5050398;28;19919;-64
2021/06/02 11:24:33;;;;;;;;;;;;;;;32.49;29.64;98928.88;5050018;28;19956;-65
2021/06/02 11:27:11;;;;;;;;;;;;;;;32.80;25.11;98930.41;5056529;28;20360;-64
2021/06/02 11:29:39;;;;;;;;;;;;;;;34.15;27.56;98934.34;5055747;28;19917;-64
2021/06/02 11:32:16;;;;;;;;;;;;;;;33.12;25.87;98930.84;5053571;28;19926;-64
2021/06/02 11:34:42;;;;;;;;;;;;;;;33.42;27.39;98936.75;5051827;28;20363;-64
2021/06/02 11:37:09;;;;;;;;;;;;;;;34.53;25.29;98930.25;5058050;28;19948;-64
2021/06/02 11:39:36;;;;;;;;;;;;;;;33.97;26.20;98941.28;5054344;28;20364;-64
2021/06/02 11:42:02;;;;;;;;;;;;;;;35.25;24.09;98938.47;5055143;28;19917;-64
2021/06/02 11:44:29;;;;;;;;;;;;;;;30.54;27.20;98941.72;5037245;28;19922;-64
2021/06/02 11:46:55;;;;;;;;;;;;;;;30.32;25.76;98938.06;5019599;28;19916;-65
2021/06/02 11:49:25;;;;;;;;;;;;;;;34.94;37.49;98932.75;5033848;28;19924;-64
2021/06/02 11:51:51;;;;;;;;;;;;;;;31.50;28.83;98938.44;5036550;28;19916;-64
2021/06/02 11:54:16;;;;;;;;;;;;;;;32.04;27.97;98935.44;5054692;28;19926;-64
2021/06/02 11:56:42;;;;;;;;;;;;;;;32.16;26.78;98925.09;5057298;28;19916;-64
2021/06/02 11:59:07;;;;;;;;;;;;;;;32.44;29.85;98925.97;5054430;28;19966;-64
2021/06/02 12:01:32;;;;;;;;;;;;;;;32.41;29.07;98926.38;5056954;28;20062;-64
2021/06/02 12:03:58;;;;;;;;;;;;;;;31.20;28.88;98933.97;5035740;28;19917;-64
2021/06/02 12:06:27;;;;;;;;;;;;;;;31.12;30.23;98925.25;5040429;28;20014;-64
2021/06/02 12:08:54;;;;;;;;;;;;;;;31.29;25.14;98928.53;5056971;28;20583;-64
2021/06/02 12:11:20;;;;;;;;;;;;;;;31.22;29.08;98926.59;5055168;28;20996;-64
2021/06/02 12:13:45;;;;;;;;;;;;;;;32.27;24.94;98919.25;5038189;28;19970;-64
2021/06/02 12:16:14;;;;;;;;;;;;;;;32.02;24.46;98932.97;5056864;28;19917;-64
2021/06/02 12:18:45;;;;;;;;;;;;;;;30.98;26.26;98926.91;5052606;28;19991;-64
2021/06/02 12:21:18;;;;;;;;;;;;;;;33.54;28.73;98926.31;5054178;28;19924;-64
2021/06/02 12:23:49;;;;;;;;;;;;;;;32.95;24.57;98926.78;5052142;28;19929;-64
2021/06/02 12:26:19;;;;;;;;;;;;;;;32.96;24.58;98931.09;5051342;28;19916;-64
2021/06/02 12:28:44;;;;;;;;;;;;;;;32.01;27.30;98933.97;5054756;28;19917;-63
2021/06/02 12:31:26;;;;;;;;;;;;;;;33.73;28.11;98928.28;5054879;28;20305;-64
2021/06/02 12:34:00;;;;;;;;;;;;;;;32.97;26.79;98930.91;5036525;28;19924;-64
2021/06/02 12:36:26;;;;;;;;;;;;;;;32.16;26.33;98927.75;5039934;28;19921;-64
2021/06/02 12:38:51;;;;;;;;;;;;;;;33.97;29.99;98934.09;5034790;28;20005;-64
2021/06/02 12:41:24;;;;;;;;;;;;;;;32.38;25.58;98929.41;5041389;28;19936;-64
2021/06/02 12:43:49;;;;;;;;;;;;;;;32.17;25.19;98932.09;5029961;28;19974;-64
2021/06/02 12:46:17;;;;;;;;;;;;;;;33.43;26.33;98934.88;5032143;28;20725;-64
2021/06/02 12:48:43;;;;;;;;;;;;;;;31.94;26.18;98941.03;5052292;28;19916;-64
2021/06/02 12:51:14;;;;;;;;;;;;;;;33.49;32.40;98936.78;5051840;28;21050;-64
2021/06/02 12:53:41;;;;;;;;;;;;;;;33.60;28.03;98936.25;5054003;28;19944;-64
2021/06/02 12:56:07;;;;;;;;;;;;;;;35.19;21.73;98934.75;5053591;28;19979;-64
2021/06/02 12:58:33;;;;;;;;;;;;;;;36.71;23.51;98936.84;5052750;28;19971;-64
2021/06/02 13:01:05;;;;;;;;;;;;;;;33.78;23.14;98937.50;5014534;28;19921;-64
2021/06/02 13:03:31;;;;;;;;;;;;;;;34.65;25.95;98931.34;5049354;28;19926;-64